Time;durP1;ratioP1;P1;durP2;ratioP2;P2;SDS_P1;SDS_P2;PMS_P1;PMS_P2;Temp;Humidity;BMP_temperature;BMP_pressure;BME280_temperature;BME280_humidity;BME280_pressure;Samples;Min_cycle;Max_cycle;Signal;HPM_P1;HPM_P2
2023/04/17 00:02:49;;;;;;;14.43;8.50;;;;;;;12.32;100.00;93917.16;4935505;29;20249;-79
2023/04/17 00:05:37;;;;;;;14.53;8.53;;;;;;;12.32;100.00;93904.13;4953582;29;20209;-80
2023/04/17 00:08:04;;;;;;;11.37;7.90;;;;;;;12.37;100.00;93903.41;4948249;29;20205;-79
2023/04/17 00:10:33;;;;;;;12.73;8.43;;;;;;;12.41;100.00;93913.06;4949009;29;20649;-77
2023/04/17 00:12:59;;;;;;;14.50;7.80;;;;;;;12.45;100.00;93910.78;4950889;29;20272;-79
2023/04/17 00:15:26;;;;;;;15.47;8.10;;;;;;;12.44;100.00;93904.75;4948397;29;20624;-80
2023/04/17 00:17:53;;;;;;;11.83;8.03;;;;;;;12.42;100.00;93908.66;4951978;29;20209;-79
2023/04/17 00:20:20;;;;;;;10.10;7.90;;;;;;;12.43;100.00;93902.41;4946837;29;20201;-77
2023/04/17 00:22:47;;;;;;;9.50;7.57;;;;;;;12.43;100.00;93898.00;4945474;29;20198;-78
2023/04/17 00:25:13;;;;;;;11.00;7.30;;;;;;;12.45;100.00;93908.97;4950955;28;20202;-79
2023/04/17 00:27:42;;;;;;;10.70;7.00;;;;;;;12.39;100.00;93912.53;4949912;29;20289;-79
2023/04/17 00:30:09;;;;;;;8.87;6.40;;;;;;;12.36;100.00;93904.44;4950245;29;20676;-79
2023/04/17 00:32:36;;;;;;;8.30;6.37;;;;;;;12.33;100.00;93902.31;4952516;29;20579;-78
2023/04/17 00:35:03;;;;;;;8.57;6.17;;;;;;;12.34;100.00;93904.69;4948110;29;20283;-78
2023/04/17 00:37:30;;;;;;;10.50;6.13;;;;;;;12.34;100.00;93904.69;4951276;29;20564;-79
2023/04/17 00:39:57;;;;;;;12.73;5.67;;;;;;;12.33;100.00;93905.72;4948854;29;20613;-78
2023/04/17 00:42:23;;;;;;;7.87;5.60;;;;;;;12.36;100.00;93902.63;4945901;29;20198;-78
2023/04/17 00:44:52;;;;;;;9.33;6.53;;;;;;;12.36;100.00;93902.63;4946185;29;20589;-78
2023/04/17 00:47:21;;;;;;;11.03;6.80;;;;;;;12.44;100.00;93903.97;4946915;29;20231;-78
2023/04/17 00:49:48;;;;;;;8.87;6.57;;;;;;;12.39;100.00;93901.34;4947938;29;20249;-78
2023/04/17 00:52:21;;;;;;;10.43;6.73;;;;;;;12.40;100.00;93895.88;4949081;29;20225;-78
2023/04/17 00:54:48;;;;;;;9.60;6.13;;;;;;;12.37;100.00;93899.00;4948049;29;20202;-77
2023/04/17 00:57:15;;;;;;;10.83;5.90;;;;;;;12.34;100.00;93891.66;4944082;29;20276;-78
2023/04/17 00:59:43;;;;;;;8.10;5.90;;;;;;;12.35;100.00;93895.81;4952165;29;20201;-77
2023/04/17 01:02:11;;;;;;;7.57;4.97;;;;;;;12.27;100.00;93880.66;4949259;29;20221;-79
2023/04/17 01:04:38;;;;;;;9.93;5.33;;;;;;;12.20;100.00;93879.28;4950360;29;20194;-79
2023/04/17 01:07:05;;;;;;;7.40;5.10;;;;;;;12.19;100.00;93883.69;4948395;29;20210;-79
2023/04/17 01:09:32;;;;;;;9.07;5.30;;;;;;;12.16;100.00;93872.97;4950359;29;20206;-79
2023/04/17 01:12:17;;;;;;;6.27;4.60;;;;;;;12.12;100.00;93879.72;4945421;29;20218;-80
2023/04/17 01:14:44;;;;;;;7.43;4.90;;;;;;;12.13;100.00;93878.69;4946823;29;20631;-80
2023/04/17 01:17:14;;;;;;;7.87;5.13;;;;;;;12.12;100.00;93871.91;4946588;29;20225;-79
2023/04/17 01:19:41;;;;;;;8.03;4.60;;;;;;;12.00;100.00;93863.47;4944826;29;20224;-79
2023/04/17 01:22:08;;;;;;;6.37;4.93;;;;;;;12.04;100.00;93873.13;4949726;29;20197;-79
2023/04/17 01:24:36;;;;;;;8.73;5.33;;;;;;;12.04;100.00;93880.16;4950093;29;20205;-79
2023/04/17 01:27:03;;;;;;;7.47;4.97;;;;;;;12.02;100.00;93877.00;4951079;29;20215;-79
2023/04/17 01:29:30;;;;;;;5.97;4.87;;;;;;;11.96;100.00;93873.56;4950152;29;20252;-79
2023/04/17 01:31:56;;;;;;;7.20;4.60;;;;;;;11.99;100.00;93880.91;4950044;29;20725;-79
2023/04/17 01:34:23;;;;;;;8.70;4.83;;;;;;;11.96;100.00;93884.00;4945243;29;20653;-79
2023/04/17 01:36:50;;;;;;;7.07;4.70;;;;;;;12.00;100.00;93887.69;4941966;29;20202;-78
2023/04/17 01:39:17;;;;;;;10.57;5.00;;;;;;;11.94;100.00;93878.25;4948443;28;20312;-78
2023/04/17 01:41:45;;;;;;;6.83;5.00;;;;;;;11.93;100.00;93880.06;4947496;29;20193;-79
2023/04/17 01:44:12;;;;;;;7.30;5.03;;;;;;;11.93;100.00;93871.47;4948675;29;20643;-79
2023/04/17 01:46:39;;;;;;;15.03;5.50;;;;;;;11.93;100.00;93874.84;4939663;29;20198;-78
2023/04/17 01:49:05;;;;;;;8.27;5.30;;;;;;;11.87;100.00;93869.84;4946620;29;20205;-79
2023/04/17 01:51:32;;;;;;;9.80;5.13;;;;;;;11.87;100.00;93870.63;4944296;29;20205;-79
2023/04/17 01:53:59;;;;;;;9.90;5.13;;;;;;;11.82;100.00;93861.97;4941523;29;20198;-79
2023/04/17 01:56:26;;;;;;;8.63;5.50;;;;;;;11.79;100.00;93854.66;4945963;29;20201;-79
2023/04/17 01:58:54;;;;;;;10.77;5.70;;;;;;;11.87;100.00;93868.03;4940211;29;20296;-79
2023/04/17 02:01:21;;;;;;;10.67;5.50;;;;;;;11.89;100.00;93862.56;4946016;29;20291;-79
2023/04/17 02:03:48;;;;;;;9.67;5.77;;;;;;;11.87;100.00;93849.00;4950112;29;20305;-79
2023/04/17 02:06:15;;;;;;;9.90;6.30;;;;;;;11.88;100.00;93855.78;4942123;29;20261;-78
2023/04/17 02:08:42;;;;;;;11.60;6.87;;;;;;;11.71;100.00;93860.31;4946050;29;20684;-79
2023/04/17 02:11:09;;;;;;;13.17;7.30;;;;;;;11.61;100.00;93852.34;4947116;28;20204;-79
2023/04/17 02:13:35;;;;;;;14.03;8.23;;;;;;;11.59;100.00;93852.59;4946917;28;20272;-79
2023/04/17 02:16:04;;;;;;;15.20;8.23;;;;;;;11.68;100.00;93848.53;4950297;29;20301;-79
2023/04/17 02:18:31;;;;;;;13.87;8.93;;;;;;;11.46;100.00;93844.38;4947436;28;20256;-78
2023/04/17 02:20:57;;;;;;;15.93;9.03;;;;;;;11.45;100.00;93853.22;4947171;28;20202;-79
2023/04/17 02:23:24;;;;;;;14.43;10.07;;;;;;;11.44;100.00;93851.63;4947134;28;20228;-80
2023/04/17 02:25:51;;;;;;;17.37;11.03;;;;;;;11.26;100.00;93848.28;4947567;29;20627;-80
2023/04/17 02:28:18;;;;;;;15.60;10.63;;;;;;;11.24;100.00;93849.56;4943098;29;20284;-79
2023/04/17 02:30:45;;;;;;;13.83;11.07;;;;;;;11.18;100.00;93859.13;4943937;29;20641;-80
2023/04/17 02:33:13;;;;;;;14.63;10.47;;;;;;;11.09;100.00;93857.97;4943723;29;20249;-80
2023/04/17 02:35:40;;;;;;;14.73;11.27;;;;;;;11.19;100.00;93849.50;4950504;29;20208;-80
2023/04/17 02:38:07;;;;;;;17.60;11.43;;;;;;;11.17;100.00;93854.94;4940334;29;20233;-78
2023/04/17 02:40:34;;;;;;;18.07;11.10;;;;;;;11.25;100.00;93858.97;4948811;29;20858;-78
2023/04/17 02:43:00;;;;;;;16.67;11.00;;;;;;;11.30;100.00;93852.00;4946374;28;20696;-78
2023/04/17 02:45:27;;;;;;;16.37;10.77;;;;;;;11.24;100.00;93854.78;4945420;29;20261;-79
2023/04/17 02:47:54;;;;;;;13.93;10.73;;;;;;;11.22;100.00;93862.03;4944499;29;20664;-79
2023/04/17 02:50:22;;;;;;;15.27;11.07;;;;;;;11.16;100.00;93856.00;4944636;28;20201;-78
2023/04/17 02:52:49;;;;;;;15.23;10.70;;;;;;;11.18;100.00;93853.13;4946879;29;20221;-80
2023/04/17 02:55:16;;;;;;;17.37;10.63;;;;;;;11.06;100.00;93858.44;4945293;29;20209;-79
2023/04/17 02:57:43;;;;;;;16.17;10.47;;;;;;;11.14;100.00;93852.06;4942723;29;20321;-79
2023/04/17 03:00:12;;;;;;;15.47;10.50;;;;;;;11.16;100.00;93860.41;4942378;29;20661;-80
2023/04/17 03:02:39;;;;;;;14.63;10.40;;;;;;;11.12;100.00;93864.50;4944459;29;20228;-79
2023/04/17 03:05:07;;;;;;;17.10;10.50;;;;;;;10.97;100.00;93844.28;4949081;29;20220;-79
2023/04/17 03:07:35;;;;;;;18.77;11.33;;;;;;;11.06;100.00;93858.44;4943778;29;20298;-79
2023/04/17 03:10:02;;;;;;;18.40;11.23;;;;;;;10.97;100.00;93864.28;4945342;29;20202;-79
2023/04/17 03:12:29;;;;;;;14.77;10.40;;;;;;;10.95;100.00;93864.53;4944550;29;20767;-79
2023/04/17 03:14:55;;;;;;;14.87;10.77;;;;;;;11.01;100.00;93873.97;4942904;28;20229;-79
2023/04/17 03:17:22;;;;;;;17.10;9.43;;;;;;;10.98;100.00;93871.06;4936490;29;20195;-78
2023/04/17 03:19:49;;;;;;;15.83;10.17;;;;;;;11.03;100.00;93871.13;4943469;29;20201;-78
2023/04/17 03:22:16;;;;;;;19.60;9.70;;;;;;;11.07;100.00;93867.03;4945865;28;20208;-78
2023/04/17 03:24:44;;;;;;;14.83;9.43;;;;;;;11.17;100.00;93872.34;4946533;29;20205;-78
2023/04/17 03:27:11;;;;;;;16.17;9.33;;;;;;;11.19;100.00;93865.13;4947154;29;20205;-78
2023/04/17 03:29:38;;;;;;;19.27;8.80;;;;;;;11.21;100.00;93869.06;4953681;29;20205;-79
2023/04/17 03:32:05;;;;;;;16.30;9.57;;;;;;;11.13;100.00;93868.69;4952258;29;20686;-79
2023/04/17 03:34:32;;;;;;;13.03;9.20;;;;;;;11.16;100.00;93870.81;4947755;29;20260;-78
2023/04/17 03:36:59;;;;;;;13.97;9.30;;;;;;;11.10;100.00;93871.75;4953960;29;20202;-79
2023/04/17 03:39:25;;;;;;;16.33;8.67;;;;;;;11.10;100.00;93871.75;4949208;29;20195;-80
2023/04/17 03:41:54;;;;;;;13.53;8.53;;;;;;;11.06;100.00;93873.25;4951254;29;20383;-78
2023/04/17 03:44:21;;;;;;;14.30;8.70;;;;;;;11.00;100.00;93862.00;4954048;29;20559;-78
2023/04/17 03:46:47;;;;;;;13.00;8.80;;;;;;;11.15;100.00;93864.00;4953887;29;20630;-78
2023/04/17 03:49:14;;;;;;;16.83;8.33;;;;;;;11.14;100.00;93878.81;4951900;29;20201;-78
2023/04/17 03:51:42;;;;;;;18.03;7.53;;;;;;;11.06;100.00;93874.03;4953308;28;20627;-78
2023/04/17 03:54:09;;;;;;;15.23;7.20;;;;;;;11.01;100.00;93871.38;4952147;29;20949;-79
2023/04/17 03:56:36;;;;;;;15.37;6.93;;;;;;;11.07;100.00;93873.03;4950864;29;20237;-78
2023/04/17 03:59:05;;;;;;;10.83;6.90;;;;;;;11.11;100.00;93875.94;4953420;28;20217;-78
2023/04/17 04:01:31;;;;;;;13.37;7.40;;;;;;;10.92;100.00;93878.00;4945773;29;20745;-78
2023/04/17 04:03:58;;;;;;;17.43;7.20;;;;;;;10.88;100.00;93879.50;4952313;28;20202;-79
2023/04/17 04:06:28;;;;;;;13.40;7.10;;;;;;;10.93;100.00;93873.59;4948326;29;20202;-77
2023/04/17 04:08:55;;;;;;;13.50;6.80;;;;;;;10.86;100.00;93878.97;4949473;29;20201;-77
2023/04/17 04:11:22;;;;;;;11.97;7.13;;;;;;;10.90;100.00;93877.47;4946744;29;20197;-77
2023/04/17 04:13:49;;;;;;;11.00;7.30;;;;;;;10.80;100.00;93880.69;4941516;29;20245;-77
2023/04/17 04:16:17;;;;;;;14.63;7.63;;;;;;;10.88;100.00;93874.31;4948956;29;20205;-77
2023/04/17 04:18:44;;;;;;;13.93;7.83;;;;;;;10.97;100.00;93872.88;4944048;29;20198;-77
2023/04/17 04:21:11;;;;;;;13.90;7.37;;;;;;;10.96;100.00;93875.72;4950189;29;20197;-77
2023/04/17 04:23:40;;;;;;;14.13;7.13;;;;;;;10.90;100.00;93866.28;4947198;29;20204;-77
2023/04/17 04:26:07;;;;;;;13.70;7.57;;;;;;;10.91;100.00;93884.22;4945811;29;20610;-76
2023/04/17 04:28:33;;;;;;;16.47;7.93;;;;;;;11.00;100.00;93890.59;4944916;29;20201;-76
2023/04/17 04:31:01;;;;;;;18.07;7.60;;;;;;;11.08;100.00;93892.78;4947512;29;20198;-77
2023/04/17 04:33:29;;;;;;;17.87;7.00;;;;;;;11.15;100.00;93884.81;4943824;29;20288;-78
2023/04/17 04:35:59;;;;;;;13.43;6.70;;;;;;;11.25;100.00;93888.34;4950388;29;20206;-77
2023/04/17 04:38:29;;;;;;;13.37;7.00;;;;;;;11.35;100.00;93888.47;4943198;29;20739;-78
2023/04/17 04:41:00;;;;;;;15.37;7.67;;;;;;;11.34;100.00;93883.53;4945716;29;20289;-78
2023/04/17 04:43:28;;;;;;;18.67;7.17;;;;;;;11.26;100.00;93882.13;4943014;28;20289;-78
2023/04/17 04:45:55;;;;;;;17.57;7.60;;;;;;;11.25;100.00;93888.34;4945111;29;20641;-78
2023/04/17 04:48:22;;;;;;;9.40;6.57;;;;;;;11.23;100.00;93894.81;4946161;29;20201;-78
2023/04/17 04:50:50;;;;;;;14.10;7.47;;;;;;;11.25;100.00;93887.56;4942216;29;20648;-77
2023/04/17 04:53:17;;;;;;;17.57;6.53;;;;;;;11.15;100.00;93887.41;4941754;29;20233;-78
2023/04/17 04:55:44;;;;;;;12.77;7.23;;;;;;;11.21;100.00;93895.06;4941888;29;20201;-79
2023/04/17 04:58:11;;;;;;;11.37;7.10;;;;;;;11.25;100.00;93892.78;4947450;28;20194;-77
2023/04/17 05:00:38;;;;;;;15.73;7.20;;;;;;;11.18;100.00;93892.94;4946787;29;20309;-77
2023/04/17 05:03:05;;;;;;;12.53;7.20;;;;;;;11.14;100.00;93868.44;4945000;29;20320;-77
2023/04/17 05:05:32;;;;;;;16.60;7.47;;;;;;;11.25;100.00;93895.38;4944292;29;20201;-76
2023/04/17 05:08:00;;;;;;;15.23;7.83;;;;;;;11.21;100.00;93896.88;4949703;29;20202;-76
2023/04/17 05:10:27;;;;;;;13.30;8.13;;;;;;;11.21;100.00;93897.66;4945691;29;20206;-76
2023/04/17 05:12:54;;;;;;;16.13;6.67;;;;;;;11.30;100.00;93895.44;4946806;29;20281;-76
2023/04/17 05:15:21;;;;;;;14.73;7.80;;;;;;;11.37;100.00;93899.41;4942515;29;20195;-76
2023/04/17 05:17:47;;;;;;;14.07;7.37;;;;;;;11.45;100.00;93902.63;4942840;29;20210;-78
2023/04/17 05:20:15;;;;;;;14.97;7.40;;;;;;;11.56;100.00;93902.53;4944744;29;20208;-79
2023/04/17 05:22:41;;;;;;;17.03;7.33;;;;;;;11.57;100.00;93903.31;4951015;29;20217;-78
2023/04/17 05:25:10;;;;;;;16.10;7.50;;;;;;;11.60;100.00;93900.22;4944410;29;20232;-77
2023/04/17 05:27:37;;;;;;;17.83;7.87;;;;;;;11.68;100.00;93899.81;4948636;29;20213;-78
2023/04/17 05:30:04;;;;;;;14.47;7.53;;;;;;;11.71;100.00;93901.94;4948324;29;20297;-76
2023/04/17 05:32:32;;;;;;;16.37;7.63;;;;;;;11.68;100.00;93900.59;4948094;29;20205;-77
2023/04/17 05:34:59;;;;;;;13.87;7.47;;;;;;;11.79;100.00;93902.31;4951118;28;20213;-77
2023/04/17 05:37:26;;;;;;;17.23;7.73;;;;;;;11.84;100.00;93893.75;4946551;29;20672;-78
2023/04/17 05:39:52;;;;;;;18.07;8.10;;;;;;;11.92;100.00;93901.91;4950776;28;20675;-78
2023/04/17 05:42:22;;;;;;;17.83;7.93;;;;;;;12.00;100.00;93899.91;4951013;29;20739;-79
2023/04/17 05:44:49;;;;;;;16.57;7.90;;;;;;;12.03;100.00;93902.81;4950968;28;20197;-79
2023/04/17 05:47:16;;;;;;;14.30;7.73;;;;;;;12.08;100.00;93905.47;4951489;29;20264;-76
2023/04/17 05:49:43;;;;;;;18.00;8.80;;;;;;;12.15;100.00;93906.06;4949286;29;20611;-78
2023/04/17 05:52:11;;;;;;;16.83;7.90;;;;;;;12.18;100.00;93904.81;4947778;28;20204;-78
2023/04/17 05:54:37;;;;;;;19.10;8.20;;;;;;;12.18;100.00;93907.41;4947814;29;20225;-78
2023/04/17 05:57:04;;;;;;;14.33;8.03;;;;;;;12.15;100.00;93910.50;4942246;29;20205;-78
2023/04/17 05:59:32;;;;;;;12.47;7.63;;;;;;;12.09;100.00;93911.47;4945089;29;20194;-78
2023/04/17 06:01:59;;;;;;;13.13;6.80;;;;;;;12.16;100.00;93910.25;4944531;29;20238;-78
2023/04/17 06:04:28;;;;;;;18.63;8.47;;;;;;;12.18;100.00;93915.22;4949972;28;20653;-78
2023/04/17 06:06:54;;;;;;;18.17;8.03;;;;;;;12.13;100.00;93902.91;4949753;28;20254;-77
2023/04/17 06:09:21;;;;;;;17.47;7.60;;;;;;;12.21;100.00;93925.13;4943710;29;20201;-77
2023/04/17 06:11:48;;;;;;;15.63;7.50;;;;;;;12.24;100.00;93915.00;4940069;29;20202;-77
2023/04/17 06:14:15;;;;;;;18.10;7.90;;;;;;;12.31;100.00;93927.84;4941633;29;20213;-77
2023/04/17 06:16:43;;;;;;;15.80;7.80;;;;;;;12.37;100.00;93930.25;4945195;29;20198;-78
2023/04/17 06:19:10;;;;;;;19.93;7.80;;;;;;;12.43;100.00;93936.31;4945775;29;20220;-79
2023/04/17 06:21:37;;;;;;;15.97;7.47;;;;;;;12.42;100.00;93929.50;4950663;28;20304;-78
2023/04/17 06:24:04;;;;;;;12.20;7.57;;;;;;;12.49;100.00;93935.31;4948611;29;20692;-80
2023/04/17 06:26:30;;;;;;;14.97;7.43;;;;;;;12.53;100.00;93929.34;4944465;29;20204;-79
2023/04/17 06:28:58;;;;;;;14.60;7.57;;;;;;;12.55;100.00;93930.94;4947012;29;20212;-78
2023/04/17 06:31:25;;;;;;;20.43;7.60;;;;;;;12.63;100.00;93931.25;4947387;29;20193;-78
2023/04/17 06:33:53;;;;;;;18.67;6.83;;;;;;;12.66;100.00;93935.19;4949220;29;20245;-79
2023/04/17 06:36:20;;;;;;;11.97;7.43;;;;;;;12.72;99.81;93950.66;4951109;29;20597;-79
2023/04/17 06:38:46;;;;;;;16.67;7.93;;;;;;;12.70;99.61;93949.31;4950403;29;20205;-79
2023/04/17 06:41:13;;;;;;;14.03;8.00;;;;;;;12.80;99.66;93950.19;4948071;28;20563;-79
2023/04/17 06:43:40;;;;;;;17.03;7.37;;;;;;;12.76;99.08;93941.28;4951645;29;20217;-80
2023/04/17 06:46:07;;;;;;;16.43;7.03;;;;;;;12.77;98.94;93945.47;4950617;29;20197;-80
2023/04/17 06:48:34;;;;;;;11.23;7.10;;;;;;;12.91;97.90;93946.63;4947209;29;20212;-80
2023/04/17 06:51:02;;;;;;;14.23;7.13;;;;;;;12.82;98.02;93947.31;4947742;29;20556;-77
2023/04/17 06:53:29;;;;;;;16.00;7.90;;;;;;;12.82;98.08;93948.09;4945110;29;20209;-76
2023/04/17 06:55:55;;;;;;;15.80;7.77;;;;;;;12.85;98.45;93942.38;4942411;28;20208;-78
2023/04/17 06:58:22;;;;;;;14.93;8.10;;;;;;;12.92;98.10;93944.78;4949583;28;20205;-78
2023/04/17 07:00:49;;;;;;;16.87;8.33;;;;;;;12.94;98.29;93948.72;4949367;29;20202;-78
2023/04/17 07:03:15;;;;;;;12.00;7.37;;;;;;;13.05;97.65;93952.19;4943801;29;20194;-77
2023/04/17 07:05:43;;;;;;;12.90;7.57;;;;;;;13.08;97.55;93954.31;4946989;29;20197;-78
2023/04/17 07:08:12;;;;;;;15.20;7.80;;;;;;;13.19;96.98;93952.59;4946727;28;20572;-79
2023/04/17 07:10:39;;;;;;;16.30;7.30;;;;;;;13.28;96.51;93948.44;4950022;29;20193;-79
2023/04/17 07:13:05;;;;;;;11.77;7.37;;;;;;;13.29;96.98;93942.22;4947940;29;20852;-77
2023/04/17 07:15:32;;;;;;;12.60;7.10;;;;;;;13.26;96.67;93937.50;4941961;29;20258;-77
2023/04/17 07:17:59;;;;;;;12.77;7.17;;;;;;;13.32;96.84;93952.94;4945659;29;20202;-79
2023/04/17 07:20:26;;;;;;;16.77;8.13;;;;;;;13.44;95.84;93955.34;4946245;29;20202;-78
2023/04/17 07:22:54;;;;;;;13.17;7.70;;;;;;;13.56;95.15;93958.56;4944907;29;20665;-78
2023/04/17 07:25:22;;;;;;;16.33;8.17;;;;;;;13.60;95.18;93957.78;4947327;29;20281;-78
2023/04/17 07:27:49;;;;;;;18.27;7.70;;;;;;;13.64;95.63;93966.69;4951056;29;20204;-78
2023/04/17 07:30:15;;;;;;;16.40;7.90;;;;;;;13.61;95.43;93966.41;4945189;29;20309;-77
2023/04/17 07:32:42;;;;;;;12.87;7.67;;;;;;;13.71;95.29;93968.31;4948031;29;20281;-78
2023/04/17 07:35:09;;;;;;;13.40;7.83;;;;;;;13.76;94.38;93970.94;4947725;29;20240;-77
2023/04/17 07:37:36;;;;;;;15.27;8.37;;;;;;;13.83;94.09;93964.44;4948138;29;20213;-80
2023/04/17 07:40:07;;;;;;;15.63;7.67;;;;;;;13.84;93.60;93960.00;4947982;29;20206;-79
2023/04/17 07:42:35;;;;;;;19.00;8.10;;;;;;;13.83;93.69;93961.03;4944136;29;20208;-79
2023/04/17 07:45:02;;;;;;;15.80;8.23;;;;;;;13.93;93.39;93953.25;4950517;29;20210;-79
2023/04/17 07:47:30;;;;;;;12.80;8.13;;;;;;;13.99;93.31;93963.47;4952591;28;20204;-77
2023/04/17 07:49:57;;;;;;;13.67;7.97;;;;;;;14.15;91.82;93954.63;4950267;29;20232;-77
2023/04/17 07:52:23;;;;;;;21.50;8.50;;;;;;;14.27;92.86;93951.00;4946915;28;20201;-81
2023/04/17 07:54:50;;;;;;;15.77;8.00;;;;;;;14.40;92.67;93959.16;4949329;29;20227;-80
2023/04/17 07:57:17;;;;;;;14.47;7.90;;;;;;;14.61;93.72;93968.63;4949031;29;20649;-80
2023/04/17 07:59:46;;;;;;;19.00;8.27;;;;;;;14.62;91.73;93967.59;4953914;29;20232;-81
2023/04/17 08:02:12;;;;;;;13.73;8.03;;;;;;;14.74;90.91;93965.50;4944938;29;20240;-82
2023/04/17 08:04:40;;;;;;;18.07;7.73;;;;;;;14.84;89.60;93975.19;4953756;28;20217;-82
2023/04/17 08:07:09;;;;;;;12.47;7.43;;;;;;;14.74;88.31;93977.81;4952741;28;20204;-80
2023/04/17 08:09:37;;;;;;;15.60;8.10;;;;;;;14.74;87.79;93975.19;4952921;28;21060;-80
2023/04/17 08:12:04;;;;;;;19.40;8.17;;;;;;;14.79;87.70;93983.03;4952024;28;20756;-80
2023/04/17 08:14:30;;;;;;;13.47;8.20;;;;;;;14.75;88.23;93972.31;4948220;29;20213;-80
2023/04/17 08:16:59;;;;;;;15.70;7.97;;;;;;;14.86;89.05;93977.56;4952568;29;20296;-81
2023/04/17 08:19:26;;;;;;;13.13;7.37;;;;;;;14.73;89.07;93971.78;4951560;29;20296;-78
2023/04/17 08:22:02;;;;;;;14.37;8.13;;;;;;;14.74;89.12;93962.09;4952389;28;20205;-76
2023/04/17 08:24:29;;;;;;;16.00;8.07;;;;;;;14.79;88.97;93969.94;4950671;29;20219;-77
2023/04/17 08:26:56;;;;;;;16.03;8.60;;;;;;;14.84;91.43;93969.16;4948109;29;20197;-76
2023/04/17 08:29:23;;;;;;;16.10;8.87;;;;;;;14.89;91.37;93971.81;4945930;28;20543;-76
2023/04/17 08:31:49;;;;;;;17.47;8.40;;;;;;;14.63;91.52;93931.75;4948818;29;20836;-77
2023/04/17 08:34:18;;;;;;;16.13;8.90;;;;;;;14.87;93.04;93979.91;4944417;29;20229;-76
2023/04/17 08:36:45;;;;;;;15.73;8.10;;;;;;;14.96;92.41;93982.78;4947248;29;20225;-76
2023/04/17 08:39:13;;;;;;;16.50;7.83;;;;;;;14.81;93.02;93965.25;4951180;29;20635;-77
2023/04/17 08:41:43;;;;;;;13.83;8.57;;;;;;;14.84;95.19;93982.25;4944400;28;20213;-77
2023/04/17 08:44:10;;;;;;;16.80;8.23;;;;;;;14.80;96.43;93983.81;4945109;28;20189;-77
2023/04/17 08:46:39;;;;;;;13.57;8.30;;;;;;;14.73;97.87;93979.63;4947103;29;20202;-77
2023/04/17 08:49:06;;;;;;;13.93;8.37;;;;;;;14.61;97.65;93981.69;4950279;29;20205;-78
2023/04/17 08:51:34;;;;;;;14.17;8.13;;;;;;;14.59;100.00;93981.19;4942483;29;20213;-78
2023/04/17 08:54:05;;;;;;;15.00;8.60;;;;;;;14.62;100.00;93983.28;4946445;29;20656;-77
2023/04/17 08:56:32;;;;;;;13.53;8.43;;;;;;;14.68;100.00;93978.84;4952442;28;20205;-77
2023/04/17 08:58:59;;;;;;;16.70;9.20;;;;;;;14.68;100.00;93979.63;4949495;29;20213;-75
2023/04/17 09:01:28;;;;;;;15.90;8.13;;;;;;;14.79;100.00;93983.03;4948322;29;20233;-77
2023/04/17 09:03:55;;;;;;;15.10;8.53;;;;;;;14.80;100.00;93979.38;4951416;29;20193;-77
2023/04/17 09:06:22;;;;;;;13.20;8.40;;;;;;;14.81;100.00;93982.75;4951066;29;20257;-78
2023/04/17 09:08:57;;;;;;;12.83;8.73;;;;;;;14.84;100.00;93982.25;4945464;29;20201;-78
2023/04/17 09:11:25;;;;;;;13.03;8.63;;;;;;;14.85;100.00;93982.00;4950403;29;20201;-78
2023/04/17 09:13:52;;;;;;;16.87;8.20;;;;;;;14.96;100.00;93986.19;4949697;29;20586;-78
2023/04/17 09:16:19;;;;;;;14.17;7.97;;;;;;;15.06;100.00;93986.22;4942744;29;20205;-78
2023/04/17 09:18:47;;;;;;;16.43;8.70;;;;;;;15.13;98.96;93978.06;4945961;29;20194;-78
2023/04/17 09:21:17;;;;;;;14.60;7.50;;;;;;;15.08;98.17;93976.25;4943529;29;20200;-76
2023/04/17 09:23:50;;;;;;;17.17;8.20;;;;;;;14.94;98.66;93959.50;4949181;29;20221;-78
2023/04/17 09:26:19;;;;;;;17.27;8.87;;;;;;;15.13;97.76;93980.69;4949837;28;20288;-78
2023/04/17 09:29:04;;;;;;;13.33;7.60;;;;;;;15.08;93.24;93984.09;4947870;29;20376;-77
2023/04/17 09:31:33;;;;;;;13.30;8.00;;;;;;;14.88;92.04;93973.63;4949267;29;20256;-79
2023/04/17 09:34:01;;;;;;;13.57;7.97;;;;;;;14.75;93.67;93966.28;4945044;29;20216;-78
2023/04/17 09:36:29;;;;;;;12.30;8.07;;;;;;;14.73;94.60;93966.56;4943331;29;20270;-78
2023/04/17 09:38:58;;;;;;;17.27;8.30;;;;;;;14.77;93.12;93962.34;4951358;29;20684;-85
2023/04/17 09:41:27;;;;;;;15.67;8.07;;;;;;;14.78;95.30;93974.41;4952640;29;20205;-84
2023/04/17 09:43:55;;;;;;;12.77;8.23;;;;;;;14.82;94.46;93971.25;4952624;29;20213;-81
2023/04/17 09:46:36;;;;;;;13.17;8.00;;;;;;;14.81;95.65;93985.38;4952361;29;20208;-84
2023/04/17 09:49:09;;;;;;;17.07;8.67;;;;;;;14.71;97.66;93986.97;4947243;29;20205;-81
2023/04/17 09:51:37;;;;;;;11.43;7.20;;;;;;;14.74;95.72;93981.22;4952383;29;20240;-79
2023/04/17 09:54:06;;;;;;;15.53;7.40;;;;;;;14.73;98.23;93982.25;4950687;28;20609;-83
2023/04/17 09:56:36;;;;;;;12.90;7.70;;;;;;;14.80;99.89;93978.59;4951706;29;20240;-83
2023/04/17 09:59:04;;;;;;;11.30;7.70;;;;;;;14.67;99.58;93975.44;4936261;28;20213;-84
2023/04/17 10:01:32;;;;;;;11.43;7.30;;;;;;;14.58;100.00;93968.34;4942845;29;20720;-79
2023/04/17 10:04:00;;;;;;;12.87;7.63;;;;;;;14.60;100.00;93974.88;4948963;29;20595;-78
2023/04/17 10:06:27;;;;;;;12.67;8.13;;;;;;;14.66;100.00;93973.09;4949677;29;20208;-78
2023/04/17 10:08:55;;;;;;;13.03;8.70;;;;;;;14.57;100.00;93974.63;4948696;29;20208;-79
2023/04/17 10:11:26;;;;;;;13.13;8.17;;;;;;;14.55;98.57;93969.66;4950927;29;20264;-79
2023/04/17 10:14:04;;;;;;;11.73;8.33;;;;;;;14.62;100.00;93964.19;4948254;29;20202;-81
2023/04/17 10:16:35;;;;;;;13.60;7.77;;;;;;;14.66;97.78;93965.25;4950032;28;20625;-80
2023/04/17 10:19:26;;;;;;;12.77;7.57;;;;;;;14.71;95.60;93962.63;4948792;29;20300;-81
2023/04/17 10:22:31;;;;;;;13.17;7.80;;;;;;;14.76;97.33;93960.00;4947039;29;20214;-81
2023/04/17 10:25:17;;;;;;;11.80;7.47;;;;;;;14.91;98.04;93961.84;4947532;29;20202;-80
2023/04/17 10:27:46;;;;;;;11.73;7.47;;;;;;;15.07;97.55;93963.41;4947942;29;20791;-81
2023/04/17 10:30:15;;;;;;;9.73;6.93;;;;;;;15.23;95.87;93959.75;4947665;29;20432;-81
2023/04/17 10:32:43;;;;;;;9.40;6.80;;;;;;;15.35;94.76;93955.81;4948587;29;20280;-81
2023/04/17 10:35:35;;;;;;;12.70;7.73;;;;;;;15.44;93.25;93947.44;4951873;29;20221;-81
2023/04/17 10:38:05;;;;;;;11.07;6.73;;;;;;;15.51;92.06;93945.34;4951631;28;20268;-81
2023/04/17 10:40:34;;;;;;;10.60;6.47;;;;;;;15.68;90.36;93946.59;4949462;28;20197;-81
2023/04/17 10:43:06;;;;;;;11.60;6.60;;;;;;;15.90;88.44;93946.28;4951543;28;20226;-81
2023/04/17 10:45:57;;;;;;;9.73;7.00;;;;;;;16.23;87.24;93939.56;4951266;29;20272;-79
2023/04/17 10:48:28;;;;;;;9.83;6.70;;;;;;;16.54;85.30;93943.63;4949444;29;20198;-81
2023/04/17 10:50:56;;;;;;;11.63;7.00;;;;;;;16.68;82.41;93941.94;4950378;29;20209;-81
2023/04/17 10:53:43;;;;;;;11.80;7.00;;;;;;;16.96;82.70;93943.88;4949208;28;20197;-81
2023/04/17 10:56:11;;;;;;;9.50;7.20;;;;;;;17.05;81.48;93951.94;4950794;29;20232;-79
2023/04/17 10:58:39;;;;;;;11.97;7.10;;;;;;;17.02;78.38;93942.78;4950520;29;20202;-81
2023/04/17 11:01:11;;;;;;;10.57;7.00;;;;;;;17.22;78.68;93947.06;4946814;29;20257;-82
2023/04/17 11:03:38;;;;;;;11.73;7.30;;;;;;;17.22;77.35;93944.44;4949497;29;20724;-82
2023/04/17 11:06:07;;;;;;;11.03;7.23;;;;;;;17.34;78.08;93944.06;4946889;29;20229;-81
2023/04/17 11:08:34;;;;;;;9.60;7.18;;;;;;;17.35;77.54;93928.03;4950760;29;20224;-81
2023/04/17 11:11:01;;;;;;;10.43;7.07;;;;;;;17.55;76.44;93943.63;4950535;29;20204;-79
2023/04/17 11:13:33;;;;;;;13.60;8.32;;;;;;;17.69;76.79;93942.97;4951316;28;20210;-81
2023/04/17 11:16:00;;;;;;;10.35;7.70;;;;;;;17.81;75.35;93940.72;4948226;29;20209;-81
2023/04/17 11:18:28;;;;;;;13.63;8.20;;;;;;;17.71;75.12;93935.59;4950713;29;20202;-81
2023/04/17 11:20:57;;;;;;;10.57;7.90;;;;;;;17.69;74.80;93942.97;4949432;29;20198;-81
2023/04/17 11:23:23;;;;;;;13.10;8.67;;;;;;;17.61;74.70;93949.59;4947835;29;20597;-81
2023/04/17 11:25:50;;;;;;;13.23;8.40;;;;;;;17.44;76.26;93951.84;4948202;29;20256;-82
2023/04/17 11:28:17;;;;;;;10.38;7.60;;;;;;;17.27;75.89;93948.84;4951023;28;20214;-83